Time;durP1;ratioP1;P1;durP2;ratioP2;P2;SDS_P1;SDS_P2;PMS_P1;PMS_P2;Temp;Humidity;BMP_temperature;BMP_pressure;BME280_temperature;BME280_humidity;BME280_pressure;Samples;Min_cycle;Max_cycle;Signal;HPM_P1;HPM_P2
2022/01/02 00:02:03;;;;;;;9.90;6.22;;;;;;;8.86;69.36;94679.34;5024731;28;20021;-87
2022/01/02 00:04:30;;;;;;;9.05;5.10;;;;;;;8.85;69.58;94680.41;5023486;28;20026;-88
2022/01/02 00:07:02;;;;;;;9.43;6.03;;;;;;;8.89;69.30;94676.13;5024736;28;20029;-88
2022/01/02 00:09:36;;;;;;;11.52;5.95;;;;;;;8.83;69.73;94677.25;5024640;28;20026;-89
2022/01/02 00:12:10;;;;;;;9.95;5.70;;;;;;;8.85;69.91;94675.09;5024761;28;20316;-88
2022/01/02 00:14:37;;;;;;;8.90;5.30;;;;;;;8.90;69.69;94685.69;5024580;28;20026;-88
2022/01/02 00:17:09;;;;;;;8.60;5.38;;;;;;;8.84;69.63;94684.94;5024505;28;20021;-88
2022/01/02 00:19:38;;;;;;;9.90;6.10;;;;;;;8.89;69.45;94689.41;5023062;28;20320;-89
2022/01/02 00:22:13;;;;;;;12.65;5.50;;;;;;;8.92;69.38;94682.75;5024456;28;20026;-89
2022/01/02 00:24:41;;;;;;;9.32;5.63;;;;;;;8.90;69.32;94679.59;5024404;28;20037;-89
2022/01/02 00:27:08;;;;;;;10.02;5.45;;;;;;;8.93;69.35;94684.34;5024416;28;20029;-88
2022/01/02 00:29:37;;;;;;;10.07;6.53;;;;;;;8.93;69.35;94687.78;5039846;28;20386;-88
2022/01/02 00:32:05;;;;;;;11.73;6.75;;;;;;;8.98;69.11;94689.59;5039798;28;20029;-88
2022/01/02 00:34:33;;;;;;;7.78;5.60;;;;;;;8.98;69.22;94677.09;5023098;28;20044;-88
2022/01/02 00:36:59;;;;;;;10.18;6.25;;;;;;;8.99;68.63;94681.31;5024110;28;20029;-88
2022/01/02 00:39:24;;;;;;;8.38;5.43;;;;;;;8.95;68.74;94675.00;5039319;28;20286;-88
2022/01/02 00:41:57;;;;;;;8.13;5.10;;;;;;;8.95;68.68;94675.00;5023942;28;20022;-88
2022/01/02 00:44:51;;;;;;;10.80;5.68;;;;;;;8.93;68.46;94685.13;5023831;28;20025;-88
2022/01/02 00:47:32;;;;;;;13.52;5.45;;;;;;;8.89;68.81;94684.09;5023744;28;20030;-88
2022/01/02 00:50:11;;;;;;;15.48;5.18;;;;;;;8.96;68.65;94676.59;5023273;28;20044;-85
2022/01/02 00:52:42;;;;;;;9.32;5.53;;;;;;;8.99;68.45;94670.69;5023607;28;20029;-86
2022/01/02 00:55:11;;;;;;;9.35;5.35;;;;;;;8.96;68.19;94675.81;5038728;28;20072;-86
2022/01/02 00:57:39;;;;;;;7.55;4.70;;;;;;;8.98;67.98;94673.66;5023539;28;20040;-86
2022/01/02 01:00:08;;;;;;;7.60;4.57;;;;;;;9.00;68.20;94674.16;5023486;28;20022;-85
2022/01/02 01:02:39;;;;;;;7.53;4.80;;;;;;;8.94;68.12;94678.75;5039003;28;20026;-86
2022/01/02 01:05:07;;;;;;;8.23;4.90;;;;;;;8.93;67.97;94679.78;5023609;28;20021;-86
2022/01/02 01:07:34;;;;;;;8.65;4.95;;;;;;;8.99;67.64;94676.00;5023242;28;20064;-86
2022/01/02 01:10:02;;;;;;;6.28;4.47;;;;;;;8.97;67.50;94680.03;5023183;28;20040;-86
2022/01/02 01:12:29;;;;;;;7.30;4.60;;;;;;;9.00;67.35;94687.47;5023358;28;20543;-85
2022/01/02 01:14:55;;;;;;;9.13;5.07;;;;;;;9.07;67.33;94689.78;5023257;28;20017;-86
2022/01/02 01:17:21;;;;;;;7.25;4.60;;;;;;;9.09;67.15;94687.63;5023011;28;20093;-85
2022/01/02 01:19:46;;;;;;;6.97;4.53;;;;;;;9.12;66.66;94689.69;5023199;28;20316;-85
2022/01/02 01:22:12;;;;;;;9.88;4.75;;;;;;;9.15;66.76;94691.81;5022947;28;20425;-85
2022/01/02 01:24:38;;;;;;;6.13;4.13;;;;;;;9.12;66.67;94687.84;5022927;28;20133;-85
2022/01/02 01:27:07;;;;;;;6.70;4.35;;;;;;;9.12;66.53;94676.41;5023032;28;20026;-85
2022/01/02 01:29:34;;;;;;;9.23;5.03;;;;;;;9.12;66.62;94685.19;5022954;28;20271;-85
2022/01/02 01:32:01;;;;;;;7.20;4.32;;;;;;;9.10;66.12;94676.72;5023614;28;20239;-86
2022/01/02 01:34:26;;;;;;;7.75;4.50;;;;;;;9.15;66.05;94671.31;5027040;28;20080;-86
2022/01/02 01:36:52;;;;;;;7.43;4.47;;;;;;;9.18;65.76;94677.94;5026891;28;20025;-85
2022/01/02 01:39:18;;;;;;;9.48;4.60;;;;;;;9.22;65.67;94678.97;5042305;28;20068;-86
2022/01/02 01:41:45;;;;;;;7.07;4.40;;;;;;;9.18;65.82;94686.72;5026794;28;20338;-85
2022/01/02 01:46:40;;;;;;;6.78;3.63;;;;;;;9.14;65.65;94677.72;5026905;28;20064;-85
2022/01/02 01:49:16;;;;;;;6.82;3.90;;;;;;;9.19;65.59;94675.00;5026734;28;20026;-85
2022/01/02 01:51:43;;;;;;;6.82;3.95;;;;;;;9.15;65.55;94678.50;5026398;28;20053;-85
2022/01/02 01:54:09;;;;;;;8.07;3.60;;;;;;;9.08;66.09;94681.53;5026643;28;20025;-86
2022/01/02 01:56:36;;;;;;;5.85;3.70;;;;;;;9.10;65.93;94684.69;5026568;28;20021;-86
2022/01/02 01:59:02;;;;;;;6.30;3.67;;;;;;;9.15;65.69;94689.16;5042018;28;20023;-85
2022/01/02 02:01:28;;;;;;;7.65;3.97;;;;;;;9.09;65.66;94684.97;5026601;28;20018;-86
2022/01/02 02:03:53;;;;;;;6.53;3.80;;;;;;;9.04;65.96;94678.63;5026372;28;20468;-85
2022/01/02 02:06:19;;;;;;;6.13;3.75;;;;;;;9.07;65.77;94674.59;5025760;28;20106;-87
2022/01/02 02:08:46;;;;;;;12.98;3.70;;;;;;;9.07;65.87;94676.47;5027195;28;20260;-86
2022/01/02 02:11:12;;;;;;;6.65;4.18;;;;;;;9.08;65.83;94670.06;5028554;28;20030;-88
2022/01/02 02:13:39;;;;;;;6.45;4.28;;;;;;;9.09;66.04;94677.00;5028542;28;20105;-87
2022/01/02 02:16:05;;;;;;;6.68;3.92;;;;;;;9.02;65.87;94674.69;5028001;28;20072;-88
2022/01/02 02:18:30;;;;;;;6.80;3.80;;;;;;;9.09;65.91;94667.13;5027764;28;20030;-88
2022/01/02 02:20:56;;;;;;;6.82;4.18;;;;;;;9.09;65.84;94663.69;5026702;28;20052;-88
2022/01/02 02:23:22;;;;;;;7.50;4.25;;;;;;;9.09;65.88;94663.69;5026459;28;20057;-88
2022/01/02 02:25:47;;;;;;;6.38;3.95;;;;;;;9.09;65.79;94661.03;5026423;28;20026;-88
2022/01/02 02:28:15;;;;;;;8.27;4.75;;;;;;;9.07;65.83;94663.97;5025171;28;20064;-87
2022/01/02 02:30:43;;;;;;;7.35;4.30;;;;;;;9.09;65.44;94666.34;5041629;28;20026;-88
2022/01/02 02:33:10;;;;;;;6.25;4.05;;;;;;;9.08;65.42;94672.72;5042159;28;20217;-88
2022/01/02 02:35:37;;;;;;;6.90;3.78;;;;;;;9.11;65.23;94677.50;5025502;28;20034;-88
2022/01/02 02:38:11;;;;;;;8.32;4.15;;;;;;;9.12;65.32;94666.59;5026257;28;20056;-88
2022/01/02 02:40:37;;;;;;;7.57;4.13;;;;;;;9.14;65.05;94675.06;5026550;28;20029;-88
2022/01/02 02:43:21;;;;;;;8.20;4.40;;;;;;;9.18;65.61;94672.63;5026905;28;20045;-89
2022/01/02 02:51:26;;;;;;;8.52;3.85;;;;;;;9.03;65.28;94666.38;5028487;28;20020;-88
2022/01/02 02:53:53;;;;;;;8.63;4.40;;;;;;;9.07;64.98;94673.81;5028715;28;20022;-89
2022/01/02 02:56:28;;;;;;;12.13;3.65;;;;;;;9.08;64.92;94678.03;5025906;28;20017;-89
2022/01/02 02:58:56;;;;;;;7.55;4.15;;;;;;;9.11;64.83;94674.84;5026112;28;20228;-89
2022/01/02 03:01:24;;;;;;;5.95;3.70;;;;;;;9.10;64.88;94682.03;5026190;28;20022;-89
2022/01/02 03:03:50;;;;;;;7.05;4.18;;;;;;;9.14;64.71;94676.91;5024782;28;20025;-88
2022/01/02 03:06:16;;;;;;;8.25;3.95;;;;;;;9.16;64.52;94678.25;5040995;28;20073;-86
2022/01/02 03:08:43;;;;;;;6.03;3.53;;;;;;;9.15;64.71;94681.97;5025336;28;20022;-86
2022/01/02 03:11:13;;;;;;;7.60;4.28;;;;;;;9.13;64.59;94691.31;5025567;28;20030;-87
2022/01/02 03:13:39;;;;;;;6.65;3.70;;;;;;;9.16;64.91;94688.06;5025723;28;20025;-87
2022/01/02 03:16:05;;;;;;;6.38;3.58;;;;;;;9.15;64.99;94683.84;5025516;28;20014;-86
2022/01/02 03:18:31;;;;;;;6.68;3.97;;;;;;;9.13;64.97;94697.41;5025229;28;20060;-86
2022/01/02 03:20:56;;;;;;;8.93;4.40;;;;;;;9.17;65.00;94701.09;5025115;28;20014;-86
2022/01/02 03:23:22;;;;;;;7.93;4.00;;;;;;;9.20;64.72;94697.09;5040424;28;20065;-86
2022/01/02 03:25:47;;;;;;;6.45;3.75;;;;;;;9.20;64.84;94702.41;5025223;28;20021;-87
2022/01/02 03:28:13;;;;;;;6.93;3.88;;;;;;;9.17;65.05;94692.31;5026141;28;20041;-89
2022/01/02 03:30:38;;;;;;;5.80;3.85;;;;;;;9.13;65.11;94702.72;5043472;28;20276;-89
2022/01/02 03:33:04;;;;;;;7.80;3.80;;;;;;;9.11;65.26;94693.44;5027346;28;20056;-89
2022/01/02 03:35:29;;;;;;;7.35;4.70;;;;;;;9.14;65.49;94691.03;5027430;28;20022;-89
2022/01/02 03:37:55;;;;;;;8.10;4.25;;;;;;;9.08;65.95;94694.00;5026882;28;20388;-88
2022/01/02 03:40:21;;;;;;;7.72;4.13;;;;;;;9.03;65.63;94698.31;5026724;28;20017;-89
2022/01/02 03:42:46;;;;;;;7.43;4.32;;;;;;;9.01;65.79;94705.78;5025198;28;20375;-89
2022/01/02 03:45:12;;;;;;;7.82;4.78;;;;;;;9.01;66.14;94700.44;5024985;28;20025;-87
2022/01/02 03:47:38;;;;;;;7.03;4.32;;;;;;;9.04;66.28;94702.56;5040662;28;20025;-88
2022/01/02 03:50:04;;;;;;;7.13;4.40;;;;;;;9.09;66.09;94693.72;5024619;28;20033;-87
2022/01/02 03:52:30;;;;;;;11.90;4.57;;;;;;;9.01;66.21;94686.38;5040128;28;20029;-88
2022/01/02 03:54:56;;;;;;;5.88;3.90;;;;;;;9.02;65.83;94688.75;5023656;28;20030;-87
2022/01/02 03:57:22;;;;;;;5.40;3.95;;;;;;;8.99;65.90;94681.31;5024811;28;20335;-87
2022/01/02 03:59:47;;;;;;;7.65;4.07;;;;;;;8.93;66.00;94690.44;5024705;28;20089;-88
2022/01/02 04:02:12;;;;;;;11.07;5.32;;;;;;;8.89;66.23;94686.75;5040064;28;20036;-87
2022/01/02 04:04:38;;;;;;;8.30;4.22;;;;;;;8.88;66.32;94698.47;5024689;28;20041;-87
2022/01/02 04:07:04;;;;;;;8.07;4.25;;;;;;;8.85;66.45;94696.38;5024272;28;20330;-87
2022/01/02 04:09:30;;;;;;;7.28;4.78;;;;;;;8.89;66.53;94694.72;5024412;28;20104;-87
2022/01/02 04:11:56;;;;;;;7.95;4.50;;;;;;;8.86;66.33;94700.63;5024231;28;20029;-87
2022/01/02 04:14:21;;;;;;;7.57;4.20;;;;;;;8.81;66.51;94704.13;5039861;28;20025;-88
2022/01/02 04:16:47;;;;;;;6.30;3.92;;;;;;;8.79;66.50;94702.81;5024265;28;20252;-87
2022/01/02 04:19:13;;;;;;;7.18;4.50;;;;;;;8.82;66.41;94723.53;5024190;28;20025;-87
2022/01/02 04:21:38;;;;;;;9.23;4.47;;;;;;;8.81;66.63;94708.63;5024339;28;20300;-87
2022/01/02 04:24:04;;;;;;;9.27;5.43;;;;;;;8.78;66.70;94714.53;5024050;28;20064;-87
2022/01/02 04:26:30;;;;;;;6.65;3.75;;;;;;;8.77;66.80;94723.56;5024349;28;20101;-87
2022/01/02 04:28:56;;;;;;;8.63;4.88;;;;;;;8.80;66.80;94725.66;5027058;28;20084;-87
2022/01/02 04:31:21;;;;;;;6.75;4.32;;;;;;;8.79;66.82;94729.38;5033857;28;20025;-87
2022/01/02 04:33:47;;;;;;;8.77;5.15;;;;;;;8.73;67.31;94730.50;5033683;28;20017;-86
2022/01/02 04:36:13;;;;;;;6.72;4.57;;;;;;;8.66;67.36;94722.06;5033221;28;20236;-86
2022/01/02 04:38:39;;;;;;;8.63;4.28;;;;;;;8.66;67.36;94728.19;5032578;28;20383;-87
2022/01/02 04:41:05;;;;;;;8.38;4.40;;;;;;;8.62;67.70;94725.28;5031177;28;20010;-86
2022/01/02 04:43:33;;;;;;;6.53;4.10;;;;;;;8.62;67.95;94722.63;5030849;28;20028;-86
2022/01/02 04:45:58;;;;;;;9.77;4.15;;;;;;;8.67;67.73;94721.81;5030630;28;20021;-86
2022/01/02 04:48:24;;;;;;;9.77;4.75;;;;;;;8.73;67.66;94728.66;5030237;28;20032;-86
2022/01/02 04:50:49;;;;;;;9.93;5.05;;;;;;;8.75;67.91;94733.69;5030130;28;20046;-86
2022/01/02 04:53:15;;;;;;;8.40;4.20;;;;;;;8.82;67.80;94736.81;5045567;28;20036;-86
2022/01/02 04:55:41;;;;;;;7.07;4.10;;;;;;;8.71;68.24;94732.66;5028547;28;20145;-86
2022/01/02 04:58:06;;;;;;;7.10;4.60;;;;;;;8.75;67.90;94744.31;5039002;28;20029;-86
2022/01/02 05:00:32;;;;;;;7.70;4.43;;;;;;;8.73;68.05;94736.63;5022368;28;20143;-86
2022/01/02 05:02:58;;;;;;;8.32;4.97;;;;;;;8.74;68.06;94730.22;5023571;28;20036;-87
2022/01/02 05:05:23;;;;;;;10.07;4.95;;;;;;;8.72;68.13;94737.69;5023778;28;20240;-87
2022/01/02 05:07:49;;;;;;;7.03;4.35;;;;;;;8.78;67.96;94739.22;5039059;28;20312;-87
2022/01/02 05:10:15;;;;;;;8.20;4.60;;;;;;;8.73;68.09;94733.16;5023562;28;20026;-87
2022/01/02 05:12:40;;;;;;;6.35;4.03;;;;;;;8.80;67.99;94741.63;5039369;28;20034;-87
2022/01/02 05:15:06;;;;;;;8.68;4.60;;;;;;;8.78;67.95;94733.13;5022475;28;20057;-86
2022/01/02 05:17:31;;;;;;;8.00;4.32;;;;;;;8.74;68.02;94732.09;5023142;28;20132;-85
2022/01/02 05:19:57;;;;;;;7.60;4.32;;;;;;;8.70;68.50;94737.19;5022951;28;20026;-84
2022/01/02 05:22:22;;;;;;;7.53;4.53;;;;;;;8.74;68.37;94734.75;5023188;28;20901;-86
2022/01/02 05:24:48;;;;;;;7.03;3.78;;;;;;;8.67;68.50;94731.63;5023398;28;20373;-86
2022/01/02 05:27:14;;;;;;;7.80;4.72;;;;;;;8.68;68.63;94744.63;5022575;28;20028;-87
2022/01/02 05:29:39;;;;;;;8.00;4.20;;;;;;;8.66;68.47;94736.16;5023417;28;20050;-87
2022/01/02 05:32:05;;;;;;;9.52;5.47;;;;;;;8.71;68.37;94737.97;5023445;28;20026;-87
2022/01/02 05:34:31;;;;;;;8.13;4.82;;;;;;;8.70;68.25;94733.75;5023447;28;20212;-87
2022/01/02 05:36:56;;;;;;;9.60;4.63;;;;;;;8.71;68.28;94738.78;5023361;28;20033;-86
2022/01/02 05:39:22;;;;;;;7.57;4.30;;;;;;;8.72;68.05;94743.00;5024024;28;20040;-88
2022/01/02 05:41:49;;;;;;;7.28;4.30;;;;;;;8.78;67.97;94743.75;5023999;28;20033;-88
2022/01/02 05:44:15;;;;;;;6.68;4.40;;;;;;;8.82;67.76;94740.25;5023833;28;20022;-88
2022/01/02 05:46:42;;;;;;;9.82;4.45;;;;;;;8.87;67.56;94742.06;5023404;28;20093;-88
2022/01/02 05:49:08;;;;;;;7.47;5.03;;;;;;;8.91;67.10;94742.31;5023719;28;20026;-88
2022/01/02 05:51:34;;;;;;;6.40;4.30;;;;;;;8.97;67.18;94746.50;5023812;28;20029;-88
2022/01/02 05:54:00;;;;;;;7.97;4.00;;;;;;;8.98;67.10;94748.09;5023488;28;20275;-88
2022/01/02 05:56:25;;;;;;;7.90;4.20;;;;;;;8.99;67.04;94750.47;5024066;28;20150;-88
2022/01/02 05:58:50;;;;;;;5.60;3.83;;;;;;;8.92;66.89;94750.00;5023643;28;20041;-87
2022/01/02 06:01:16;;;;;;;7.93;3.75;;;;;;;8.88;67.31;94750.84;5023525;28;20319;-87
2022/01/02 06:03:41;;;;;;;6.45;3.92;;;;;;;8.91;67.34;94742.31;5023837;28;20025;-87
2022/01/02 06:06:07;;;;;;;9.23;4.00;;;;;;;8.94;67.10;94752.41;5023811;28;20022;-88
2022/01/02 06:08:32;;;;;;;5.80;3.78;;;;;;;8.80;68.00;94765.53;5038435;28;20072;-88
2022/01/02 06:10:58;;;;;;;6.65;4.38;;;;;;;8.81;67.76;94754.63;5023060;28;20247;-88
2022/01/02 06:13:23;;;;;;;8.60;4.60;;;;;;;8.84;67.61;94759.38;5023279;28;20093;-88
2022/01/02 06:15:49;;;;;;;6.75;4.20;;;;;;;8.78;67.69;94754.41;5022006;28;20315;-88
2022/01/02 06:18:15;;;;;;;4.93;3.42;;;;;;;8.77;67.48;94760.78;5024363;28;20029;-88
2022/01/02 06:20:40;;;;;;;6.15;3.72;;;;;;;8.69;67.97;94762.19;5026702;28;20219;-88
2022/01/02 06:23:06;;;;;;;6.25;3.50;;;;;;;8.66;67.90;94768.03;5026371;28;20055;-88
2022/01/02 06:25:32;;;;;;;7.15;3.80;;;;;;;8.67;67.67;94769.66;5026469;28;20041;-88
2022/01/02 06:27:58;;;;;;;6.75;3.92;;;;;;;8.67;67.44;94766.16;5026680;28;20030;-88
2022/01/02 06:30:23;;;;;;;6.60;4.00;;;;;;;8.71;67.23;94769.84;5026552;28;20028;-88
2022/01/02 06:32:54;;;;;;;5.82;3.65;;;;;;;8.66;66.88;94776.03;5026446;28;20338;-87
2022/01/02 06:35:24;;;;;;;6.20;3.47;;;;;;;8.71;67.11;94783.16;5027174;28;20093;-88
2022/01/02 06:37:50;;;;;;;7.22;3.72;;;;;;;8.72;67.16;94784.75;5026158;28;20332;-88
2022/01/02 06:40:15;;;;;;;6.93;4.07;;;;;;;8.80;67.12;94784.94;5026391;28;20018;-87
2022/01/02 06:42:41;;;;;;;6.53;3.25;;;;;;;8.79;66.55;94779.91;5026289;28;20021;-87
2022/01/02 06:45:08;;;;;;;6.47;3.55;;;;;;;8.79;67.10;94774.56;5026025;28;20088;-85
2022/01/02 06:47:33;;;;;;;4.95;3.05;;;;;;;8.83;66.72;94791.56;5025668;28;20098;-85
2022/01/02 06:49:59;;;;;;;6.35;3.75;;;;;;;8.78;67.35;94813.66;5025883;28;20014;-85
2022/01/02 06:52:24;;;;;;;8.35;4.22;;;;;;;8.80;67.46;94795.56;5025794;28;20080;-86
2022/01/02 06:54:53;;;;;;;6.20;3.55;;;;;;;8.68;67.56;94795.13;5025680;28;20022;-86
2022/01/02 06:57:20;;;;;;;7.35;3.88;;;;;;;8.71;67.60;94801.75;5025744;28;20025;-86
2022/01/02 06:59:45;;;;;;;6.13;3.60;;;;;;;8.71;67.39;94809.72;5026109;28;20022;-86
2022/01/02 07:02:11;;;;;;;9.65;3.63;;;;;;;8.69;67.68;94811.88;5041160;28;20013;-87
2022/01/02 07:04:36;;;;;;;5.82;3.53;;;;;;;8.71;67.58;94799.09;5025668;28;20072;-86
2022/01/02 07:07:02;;;;;;;6.22;3.60;;;;;;;8.59;67.78;94810.88;5025519;28;20032;-86
2022/01/02 07:09:29;;;;;;;6.32;3.88;;;;;;;8.63;67.43;94809.25;5040970;28;20057;-86
2022/01/02 07:11:55;;;;;;;6.10;3.75;;;;;;;8.63;67.62;94817.25;5025279;28;20041;-86
2022/01/02 07:14:23;;;;;;;6.70;3.47;;;;;;;8.66;67.47;94823.06;5040996;28;20232;-86
2022/01/02 07:16:48;;;;;;;5.63;3.13;;;;;;;8.66;67.37;94817.75;5025386;28;20350;-86
2022/01/02 07:19:14;;;;;;;7.05;3.60;;;;;;;8.61;67.02;94818.59;5025443;28;20025;-86
2022/01/02 07:21:39;;;;;;;6.72;2.80;;;;;;;8.66;67.19;94820.41;5025204;28;20300;-86
2022/01/02 07:24:05;;;;;;;6.15;2.83;;;;;;;8.59;67.09;94828.72;5025626;28;20046;-86
2022/01/02 07:26:30;;;;;;;5.13;3.00;;;;;;;8.70;67.01;94830.19;5025460;28;20026;-87
2022/01/02 07:28:56;;;;;;;5.20;3.10;;;;;;;8.75;66.74;94830.19;5025419;28;20036;-87
2022/01/02 07:31:21;;;;;;;5.63;2.83;;;;;;;8.79;66.47;94835.72;5024939;28;20145;-86
2022/01/02 07:33:47;;;;;;;5.88;3.00;;;;;;;8.78;66.43;94834.16;5025158;28;20030;-87
2022/01/02 07:36:12;;;;;;;4.32;2.75;;;;;;;8.86;66.30;94838.88;5025053;28;20040;-87
2022/01/02 07:38:38;;;;;;;5.57;3.00;;;;;;;8.94;66.22;94840.94;5025048;28;20281;-87
2022/01/02 07:41:03;;;;;;;4.45;2.65;;;;;;;9.07;66.04;94838.69;5024442;28;20068;-87
2022/01/02 07:43:28;;;;;;;6.78;3.08;;;;;;;9.12;65.60;94838.63;5025410;28;20064;-87
2022/01/02 07:45:54;;;;;;;4.22;2.75;;;;;;;9.21;65.61;94832.44;5025177;28;20096;-86
2022/01/02 07:48:19;;;;;;;7.05;3.67;;;;;;;9.38;65.39;94831.22;5040599;28;20249;-88
2022/01/02 07:50:45;;;;;;;4.70;2.83;;;;;;;9.46;65.50;94824.50;5024717;28;20269;-88
2022/01/02 07:53:10;;;;;;;7.63;3.70;;;;;;;9.52;64.96;94824.16;5023518;28;20036;-88
2022/01/02 07:55:35;;;;;;;5.63;2.95;;;;;;;9.44;65.13;94827.44;5024844;28;20030;-87
2022/01/02 07:58:01;;;;;;;6.25;3.45;;;;;;;9.37;65.89;94833.09;5024763;28;20045;-87
2022/01/02 08:00:27;;;;;;;6.40;3.53;;;;;;;9.46;65.53;94824.50;5024641;28;20364;-88
2022/01/02 08:02:52;;;;;;;4.93;3.03;;;;;;;9.38;65.74;94816.06;5024692;28;20236;-87
2022/01/02 08:05:17;;;;;;;5.32;3.03;;;;;;;9.38;65.55;94816.06;5024440;28;20037;-86
2022/01/02 08:07:43;;;;;;;6.55;3.83;;;;;;;9.31;65.46;94831.56;5024024;28;20096;-86
2022/01/02 08:10:09;;;;;;;6.40;3.80;;;;;;;9.19;65.24;94823.94;5024549;28;20034;-86
2022/01/02 08:12:34;;;;;;;5.57;3.15;;;;;;;9.19;65.80;94833.81;5024302;28;20025;-86
2022/01/02 08:14:59;;;;;;;5.38;3.13;;;;;;;9.26;65.70;94831.63;5022677;28;20105;-86
2022/01/02 08:17:27;;;;;;;5.75;2.95;;;;;;;9.28;65.17;94826.00;5039686;28;20079;-87
2022/01/02 08:19:52;;;;;;;6.03;3.55;;;;;;;9.28;64.96;94832.13;5024475;28;20033;-88
2022/01/02 08:22:18;;;;;;;4.93;3.15;;;;;;;9.37;65.40;94830.44;5024110;28;20018;-87
2022/01/02 08:24:43;;;;;;;7.38;3.65;;;;;;;9.42;64.74;94838.38;5024402;28;20026;-88
2022/01/02 08:27:08;;;;;;;4.93;3.00;;;;;;;9.40;64.50;94850.34;5024127;28;20226;-87
2022/01/02 08:29:34;;;;;;;6.82;3.55;;;;;;;9.41;64.88;94839.44;5024089;28;20020;-88
2022/01/02 08:31:59;;;;;;;6.65;3.47;;;;;;;9.43;65.10;94834.63;5039623;28;20022;-88
2022/01/02 08:34:25;;;;;;;7.57;3.47;;;;;;;9.41;64.16;94842.09;5024208;28;20025;-85
2022/01/02 08:36:50;;;;;;;5.47;3.65;;;;;;;9.43;65.30;94824.00;5039547;28;20320;-87
2022/01/02 08:39:16;;;;;;;6.80;4.40;;;;;;;9.54;64.09;94831.88;5025212;28;20097;-86
2022/01/02 08:41:41;;;;;;;9.88;4.38;;;;;;;9.61;64.50;94830.47;5023502;28;20018;-86
2022/01/02 08:44:07;;;;;;;8.23;3.83;;;;;;;9.79;64.03;94825.47;5028599;28;20037;-87
2022/01/02 08:46:32;;;;;;;8.20;3.55;;;;;;;9.91;62.43;94827.72;5024172;28;20029;-88
2022/01/02 08:48:57;;;;;;;4.75;3.05;;;;;;;9.81;61.91;94824.13;5026067;28;20068;-81
2022/01/02 08:51:23;;;;;;;6.32;3.30;;;;;;;9.83;61.98;94837.94;5023371;28;20201;-81
2022/01/02 08:53:48;;;;;;;4.78;2.63;;;;;;;9.79;61.79;94833.44;5023584;28;20022;-79
2022/01/02 08:56:14;;;;;;;4.22;2.40;;;;;;;9.85;61.34;94824.34;5023254;28;20339;-79
2022/01/02 08:58:40;;;;;;;5.70;3.05;;;;;;;9.96;62.06;94833.00;5023318;28;20028;-77
2022/01/02 09:01:05;;;;;;;4.78;2.47;;;;;;;9.91;61.04;94828.53;5023329;28;20018;-79
2022/01/02 09:03:31;;;;;;;5.78;3.00;;;;;;;9.94;60.87;94835.16;5023408;28;20029;-79
2022/01/02 09:05:56;;;;;;;19.45;3.15;;;;;;;9.86;60.10;94841.13;5023165;28;20034;-79
2022/01/02 09:08:22;;;;;;;5.60;3.15;;;;;;;9.87;60.35;94829.38;5023225;28;20068;-79
2022/01/02 09:10:47;;;;;;;6.28;2.60;;;;;;;9.77;60.49;94817.78;5023188;28;20026;-78
2022/01/02 09:13:13;;;;;;;5.45;2.67;;;;;;;9.72;60.76;94815.16;5023075;28;20021;-77
2022/01/02 09:15:39;;;;;;;5.00;2.78;;;;;;;9.69;61.11;94809.59;5023297;28;20479;-78
2022/01/02 09:18:05;;;;;;;6.68;2.92;;;;;;;9.73;60.56;94811.44;5023271;28;20025;-81
2022/01/02 09:20:31;;;;;;;4.13;2.40;;;;;;;9.67;59.98;94807.25;5022937;28;20018;-78
2022/01/02 09:22:56;;;;;;;4.03;2.38;;;;;;;9.75;59.84;94814.59;5023042;28;20049;-78
2022/01/02 09:25:22;;;;;;;4.60;2.88;;;;;;;9.81;59.50;94797.50;5022957;28;20026;-78
2022/01/02 09:27:48;;;;;;;5.30;2.38;;;;;;;9.75;59.72;94795.97;5023000;28;20028;-78
2022/01/02 09:30:13;;;;;;;15.60;5.07;;;;;;;9.82;60.67;94796.41;5022782;28;20053;-78
2022/01/02 09:32:40;;;;;;;6.20;3.10;;;;;;;9.87;59.96;94782.25;5038327;28;20311;-78
2022/01/02 09:35:08;;;;;;;2.63;1.65;;;;;;;9.81;59.32;94794.84;5023013;28;20026;-83
2022/01/02 09:37:34;;;;;;;5.03;2.30;;;;;;;9.73;58.88;94784.81;5022947;28;20098;-86
2022/01/02 09:40:00;;;;;;;4.03;2.55;;;;;;;9.62;59.65;94772.69;5023184;28;20018;-86
2022/01/02 09:42:25;;;;;;;4.68;2.55;;;;;;;9.69;59.97;94773.16;5022172;28;20261;-87
2022/01/02 09:44:51;;;;;;;5.57;3.35;;;;;;;9.63;60.64;94776.94;5038442;28;20076;-85
2022/01/02 09:47:20;;;;;;;4.05;2.65;;;;;;;9.64;60.11;94755.34;5023335;28;20029;-86
2022/01/02 09:49:47;;;;;;;6.35;2.75;;;;;;;9.66;60.66;94752.41;5023114;28;20025;-86
2022/01/02 09:52:12;;;;;;;3.47;2.20;;;;;;;9.70;60.02;94756.09;5022710;28;20026;-86
2022/01/02 09:54:38;;;;;;;3.85;2.30;;;;;;;9.98;59.56;94756.28;5026367;28;20028;-86
2022/01/02 09:57:04;;;;;;;7.88;3.00;;;;;;;9.99;59.50;94744.53;5026662;28;20080;-87
2022/01/02 09:59:29;;;;;;;5.03;2.90;;;;;;;10.04;59.15;94741.81;5025633;28;20026;-84
2022/01/02 10:01:55;;;;;;;6.28;3.20;;;;;;;10.13;59.02;94748.06;5027240;28;20050;-85
2022/01/02 10:04:38;;;;;;;5.32;2.58;;;;;;;10.10;58.63;94753.97;5042752;28;20052;-84
2022/01/02 10:07:30;;;;;;;5.45;2.58;;;;;;;10.06;58.82;94746.88;5025559;28;20046;-84
2022/01/02 10:09:55;;;;;;;5.80;3.00;;;;;;;10.07;58.59;94749.22;5026864;28;20025;-84
2022/01/02 10:12:31;;;;;;;4.35;2.22;;;;;;;9.96;59.00;94750.44;5026999;28;20030;-86
2022/01/02 10:15:16;;;;;;;5.50;2.90;;;;;;;9.96;58.79;94750.44;5026074;28;20041;-84
2022/01/02 10:18:05;;;;;;;8.02;2.90;;;;;;;9.97;59.52;94742.19;5025831;28;20064;-85
2022/01/02 10:20:37;;;;;;;4.82;2.70;;;;;;;9.83;59.83;94733.28;5026208;28;20033;-84
2022/01/02 10:23:04;;;;;;;4.88;2.50;;;;;;;9.87;60.18;94731.66;5025536;28;20057;-83
2022/01/02 10:25:39;;;;;;;6.40;2.90;;;;;;;9.87;59.66;94731.66;5023341;28;20017;-83
2022/01/02 10:28:41;;;;;;;6.85;3.03;;;;;;;10.02;59.28;94717.34;5025056;28;20022;-84
2022/01/02 10:31:13;;;;;;;4.77;2.40;;;;;;;10.10;59.23;94721.22;5024615;28;20038;-84
2022/01/02 10:33:52;;;;;;;5.95;2.63;;;;;;;10.13;59.34;94712.66;5025472;28;20587;-83
2022/01/02 10:36:48;;;;;;;3.90;2.35;;;;;;;10.22;58.55;94713.59;5024977;28;20060;-83
2022/01/02 10:39:19;;;;;;;5.07;2.75;;;;;;;10.23;58.80;94707.97;5024771;28;20045;-84
2022/01/02 10:41:47;;;;;;;5.65;2.83;;;;;;;10.33;59.15;94711.59;5025526;28;20021;-84
2022/01/02 10:44:30;;;;;;;5.47;2.83;;;;;;;10.43;59.12;94698.09;5025427;28;20033;-83
2022/01/02 10:47:16;;;;;;;3.90;2.28;;;;;;;10.52;58.07;94698.22;5025255;28;20021;-84
2022/01/02 10:49:53;;;;;;;5.93;2.25;;;;;;;10.57;57.48;94704.28;5025310;28;20052;-83
2022/01/02 10:52:21;;;;;;;5.50;2.40;;;;;;;10.58;57.35;94702.38;5040716;28;20232;-84
2022/01/02 10:54:46;;;;;;;8.90;2.08;;;;;;;10.57;57.24;94693.59;5025051;28;20049;-83
2022/01/02 10:57:13;;;;;;;6.43;2.63;;;;;;;10.64;56.90;94695.88;5025082;28;20030;-84
2022/01/02 10:59:39;;;;;;;3.58;2.10;;;;;;;10.63;56.66;94697.78;5025186;28;20423;-84
2022/01/02 11:02:05;;;;;;;5.88;1.90;;;;;;;10.71;56.74;94698.97;5024811;28;20017;-83
2022/01/02 11:04:32;;;;;;;3.60;2.17;;;;;;;10.81;57.00;94695.34;5024712;28;20022;-84
2022/01/02 11:07:02;;;;;;;5.20;1.95;;;;;;;10.87;55.98;94688.84;5024993;28;20021;-83
2022/01/02 11:09:28;;;;;;;3.33;2.10;;;;;;;10.79;55.75;94686.84;5024701;28;20032;-83
2022/01/02 11:11:54;;;;;;;5.43;2.47;;;;;;;10.89;55.59;94691.19;5024714;28;20022;-84
2022/01/02 11:14:20;;;;;;;4.15;2.08;;;;;;;10.90;55.88;94677.56;5024912;28;20189;-83
2022/01/02 11:16:46;;;;;;;4.57;2.28;;;;;;;10.93;55.47;94685.00;5024647;28;20025;-84
2022/01/02 11:19:12;;;;;;;3.13;2.03;;;;;;;10.94;55.47;94675.13;5024779;28;20022;-84
2022/01/02 11:21:43;;;;;;;3.65;1.90;;;;;;;10.99;55.77;94667.81;5023588;28;20014;-84
2022/01/02 11:24:23;;;;;;;5.00;1.97;;;;;;;11.15;55.91;94670.19;5024591;28;20065;-84
2022/01/02 11:26:55;;;;;;;4.63;2.20;;;;;;;11.21;55.41;94669.00;5039929;28;20021;-84
2022/01/02 11:29:29;;;;;;;3.97;2.13;;;;;;;11.18;54.69;94653.59;5024474;28;20319;-85
2022/01/02 11:31:55;;;;;;;3.13;2.00;;;;;;;11.23;54.20;94656.97;5039554;28;20021;-84
2022/01/02 11:34:25;;;;;;;5.20;2.05;;;;;;;11.23;54.21;94653.47;5024776;28;20093;-84
2022/01/02 11:36:53;;;;;;;4.13;1.88;;;;;;;11.32;54.50;94662.38;5024481;28;20092;-84
2022/01/02 11:39:19;;;;;;;4.82;1.90;;;;;;;11.38;54.36;94660.41;5023451;28;20324;-83
2022/01/02 11:41:47;;;;;;;3.78;2.10;;;;;;;11.44;54.27;94654.66;5024530;28;20026;-84
2022/01/02 11:44:13;;;;;;;3.35;1.92;;;;;;;11.50;53.05;94657.22;5023275;28;20407;-84
2022/01/02 11:46:52;;;;;;;4.82;2.13;;;;;;;11.53;53.60;94641.38;5024308;28;20036;-83
2022/01/02 11:49:40;;;;;;;4.28;2.38;;;;;;;11.58;53.67;94656.50;5024235;28;20030;-84